Time;durP1;ratioP1;P1;durP2;ratioP2;P2;SDS_P1;SDS_P2;PMS_P1;PMS_P2;Temp;Humidity;BMP_temperature;BMP_pressure;BME280_temperature;BME280_humidity;BME280_pressure;Samples;Min_cycle;Max_cycle;Signal;HPM_P1;HPM_P2
2022/11/03 00:01:07;;;;;;;29.63;8.97;;;;;;;-143.84;58.38;45098.56;5070826;28;20439;-70
2022/11/03 00:03:36;;;;;;;16.67;8.80;;;;;;;-143.84;58.53;45085.25;5070370;28;20488;-70
2022/11/03 00:06:06;;;;;;;31.77;9.80;;;;;;;-143.84;58.63;45110.00;5070474;28;20437;-70
2022/11/03 00:08:35;;;;;;;21.13;10.37;;;;;;;-143.84;58.64;45092.88;5070080;28;20446;-70
2022/11/03 00:11:07;;;;;;;20.60;8.87;;;;;;;-143.84;58.42;45081.44;5070259;28;20434;-70
2022/11/03 00:13:35;;;;;;;18.60;9.57;;;;;;;-143.84;58.63;45111.91;5071146;28;20443;-70
2022/11/03 00:16:02;;;;;;;19.33;10.63;;;;;;;-143.84;58.72;45083.34;5070581;28;20477;-70
2022/11/03 00:18:29;;;;;;;18.47;9.97;;;;;;;-143.84;58.73;45089.06;5070833;28;20429;-70
2022/11/03 00:20:59;;;;;;;29.50;11.00;;;;;;;-143.84;58.30;45083.34;5070461;28;20848;-70
2022/11/03 00:23:29;;;;;;;18.10;8.97;;;;;;;-143.84;58.38;45090.97;5070290;28;20544;-70
2022/11/03 00:26:02;;;;;;;25.33;9.63;;;;;;;-143.84;58.45;45102.38;5069728;28;20533;-70
2022/11/03 00:28:31;;;;;;;15.60;9.13;;;;;;;-143.84;58.27;45123.34;5070632;28;20442;-70
2022/11/03 00:30:58;;;;;;;15.40;8.70;;;;;;;-143.84;58.19;45108.09;5070365;28;20433;-70
2022/11/03 00:33:26;;;;;;;29.63;10.73;;;;;;;-143.84;58.37;45079.53;5070278;28;20525;-70
2022/11/03 00:35:58;;;;;;;20.73;8.93;;;;;;;-143.84;58.38;45117.63;5070205;28;20457;-70
2022/11/03 00:38:25;;;;;;;18.90;9.43;;;;;;;-143.84;58.19;45092.88;5070173;28;20522;-70
2022/11/03 00:40:56;;;;;;;18.13;9.53;;;;;;;-143.84;58.10;45079.53;5069980;28;20447;-70
2022/11/03 00:43:23;;;;;;;20.73;8.87;;;;;;;-143.84;58.30;45083.34;5070215;28;20492;-70
2022/11/03 00:45:50;;;;;;;14.77;9.03;;;;;;;-143.84;57.79;45090.97;5069622;28;20504;-70
2022/11/03 00:48:31;;;;;;;17.93;9.20;;;;;;;-143.84;58.18;45071.91;5069836;28;20448;-70
2022/11/03 00:51:05;;;;;;;18.37;9.90;;;;;;;-143.84;57.94;45113.81;5069545;28;20534;-70
2022/11/03 00:53:33;;;;;;;19.30;9.13;;;;;;;-143.84;58.02;45094.78;5069886;28;20457;-70
2022/11/03 00:56:01;;;;;;;17.90;9.10;;;;;;;-143.84;58.03;45092.88;5069797;28;20552;-70
2022/11/03 00:58:28;;;;;;;17.30;9.37;;;;;;;-143.84;58.08;45094.78;5069798;28;20448;-70
2022/11/03 01:01:04;;;;;;;20.97;8.87;;;;;;;-143.84;58.15;45096.66;5069747;28;20450;-70
2022/11/03 01:03:33;;;;;;;20.03;8.50;;;;;;;-143.84;57.79;45113.81;5069525;28;20493;-70
2022/11/03 01:08:45;;;;;;;15.00;8.83;;;;;;;-143.84;57.98;45090.97;5069815;28;20450;-70
2022/11/03 01:14:00;;;;;;;12.10;8.67;;;;;;;-143.84;58.10;45083.34;5069031;28;21120;-70
2022/11/03 01:16:29;;;;;;;12.10;8.07;;;;;;;-143.84;58.04;45098.56;5069218;28;20865;-70
2022/11/03 01:18:56;;;;;;;13.30;8.67;;;;;;;-143.84;57.79;45096.66;5069361;28;20448;-70
2022/11/03 01:21:23;;;;;;;14.37;9.30;;;;;;;-143.84;57.87;45094.78;5069445;28;20504;-70
2022/11/03 01:23:52;;;;;;;18.43;8.20;;;;;;;-143.84;57.61;45098.56;5069348;28;20557;-70
2022/11/03 01:26:19;;;;;;;13.30;8.50;;;;;;;-143.84;57.71;45096.66;5069360;28;20438;-70
2022/11/03 01:28:47;;;;;;;14.10;8.20;;;;;;;-143.84;57.71;45092.88;5069292;28;20806;-70
2022/11/03 01:31:17;;;;;;;13.80;7.83;;;;;;;-143.84;57.17;45087.16;5069051;28;20870;-70
2022/11/03 01:33:45;;;;;;;13.63;8.90;;;;;;;-143.84;57.37;45098.56;5069030;28;20806;-70
2022/11/03 01:36:14;;;;;;;14.13;8.67;;;;;;;-143.84;57.28;45102.38;5069241;28;20443;-70
2022/11/03 01:38:41;;;;;;;11.47;8.30;;;;;;;-143.84;57.17;45068.13;5068888;28;20441;-70
2022/11/03 01:41:13;;;;;;;28.07;8.20;;;;;;;-143.84;57.25;45108.09;5068972;28;20514;-70
2022/11/03 01:43:40;;;;;;;18.70;8.13;;;;;;;-143.84;57.22;45092.88;5068951;28;20485;-70
2022/11/03 01:46:16;;;;;;;20.33;8.40;;;;;;;-143.84;57.36;45096.66;5068943;28;20432;-70
2022/11/03 01:48:48;;;;;;;8.80;7.40;;;;;;;-143.84;57.18;45108.09;5068946;28;20438;-70
2022/11/03 01:51:19;;;;;;;8.47;7.17;;;;;;;-143.84;57.18;45108.09;5068878;28;20441;-70
2022/11/03 01:53:49;;;;;;;13.60;7.97;;;;;;;-143.84;56.96;45090.97;5069070;28;20458;-70
2022/11/03 01:56:19;;;;;;;9.70;6.67;;;;;;;-143.84;57.05;45098.56;5069062;28;20446;-70
2022/11/03 01:58:50;;;;;;;11.57;7.23;;;;;;;-143.84;57.05;45083.34;5068863;28;20450;-70
2022/11/03 02:01:17;;;;;;;11.90;7.40;;;;;;;-143.84;57.24;45108.09;5068875;28;20449;-70
2022/11/03 02:03:50;;;;;;;9.30;7.10;;;;;;;-143.84;57.54;45102.38;5068484;28;20508;-70
2022/11/03 02:06:19;;;;;;;10.20;7.27;;;;;;;-143.84;57.65;45087.16;5068653;28;20446;-70
2022/11/03 02:08:49;;;;;;;15.87;6.40;;;;;;;-143.84;57.82;45096.66;5068894;28;20439;-70
2022/11/03 02:14:02;;;;;;;15.43;7.30;;;;;;;-143.84;58.03;45106.19;5068867;28;20444;-70
2022/11/03 02:16:32;;;;;;;17.00;7.87;;;;;;;-143.84;58.29;45092.88;5068654;28;20448;-70
2022/11/03 02:19:02;;;;;;;12.57;7.47;;;;;;;-143.84;58.54;45100.47;5068539;28;20512;-70
2022/11/03 02:21:36;;;;;;;10.07;7.03;;;;;;;-143.84;58.53;45085.25;5067490;28;20449;-70
2022/11/03 02:24:12;;;;;;;14.30;7.50;;;;;;;-143.84;58.93;45108.09;5068011;28;20480;-70
2022/11/03 02:26:44;;;;;;;13.93;7.90;;;;;;;-143.84;58.99;45111.91;5068250;28;20839;-70
2022/11/03 02:29:11;;;;;;;32.43;9.30;;;;;;;-143.84;59.41;45108.09;5068943;28;20441;-70
2022/11/03 02:31:42;;;;;;;12.53;7.37;;;;;;;-143.84;59.81;45125.22;5068550;28;20504;-70
2022/11/03 02:34:16;;;;;;;14.87;8.43;;;;;;;-143.84;60.42;45129.03;5068395;28;20519;-70
2022/11/03 02:36:50;;;;;;;17.93;9.73;;;;;;;-143.84;61.31;45090.97;5068007;28;20439;-70
2022/11/03 02:39:23;;;;;;;17.47;10.20;;;;;;;-143.84;61.95;45090.97;5068358;28;21173;-70
2022/11/03 02:41:56;;;;;;;17.90;9.63;;;;;;;-143.84;62.51;45090.97;5068583;28;20494;-70
2022/11/03 02:44:25;;;;;;;21.50;10.07;;;;;;;-143.84;62.75;45098.56;5068312;28;21290;-70
2022/11/03 02:46:58;;;;;;;22.57;10.80;;;;;;;-143.84;63.06;45083.34;5068293;28;20445;-70
2022/11/03 02:49:25;;;;;;;15.97;10.07;;;;;;;-143.84;63.38;45094.78;5068829;28;21013;-70
2022/11/03 02:52:00;;;;;;;13.23;9.70;;;;;;;-143.84;63.90;45102.38;5072358;28;20441;-70
2022/11/03 02:54:32;;;;;;;22.40;9.50;;;;;;;-143.84;64.05;45090.97;5072150;28;20461;-70
2022/11/03 02:57:05;;;;;;;18.40;9.20;;;;;;;-143.84;64.62;45104.28;5071935;28;20518;-70
2022/11/03 02:59:42;;;;;;;14.00;9.40;;;;;;;-143.84;64.96;45119.53;5072179;28;20455;-70
2022/11/03 03:02:12;;;;;;;13.90;8.57;;;;;;;-143.84;65.11;45100.47;5071824;28;20439;-70
2022/11/03 03:04:44;;;;;;;16.00;9.90;;;;;;;-143.84;65.23;45110.00;5071892;28;21256;-70
2022/11/03 03:07:15;;;;;;;12.20;9.43;;;;;;;-143.84;65.42;45123.34;5072156;28;20444;-70
2022/11/03 03:09:47;;;;;;;14.10;9.87;;;;;;;-143.84;65.65;45115.72;5070785;28;20899;-70
2022/11/03 03:12:20;;;;;;;17.60;10.20;;;;;;;-143.84;66.04;45110.00;5051809;28;20434;-70
2022/11/03 03:14:50;;;;;;;11.07;8.83;;;;;;;-143.84;66.19;45119.53;5055321;28;20452;-70
2022/11/03 03:17:24;;;;;;;18.10;9.93;;;;;;;-143.84;66.04;45106.19;5051745;28;20460;-70
2022/11/03 03:19:59;;;;;;;15.10;9.70;;;;;;;-143.84;66.16;45121.44;5051268;28;20446;-68
2022/11/03 03:22:33;;;;;;;11.10;8.60;;;;;;;-143.84;66.48;45129.03;5051687;28;20506;-69
2022/11/03 03:25:09;;;;;;;11.33;8.67;;;;;;;-143.84;66.36;45085.25;5054664;28;20484;-70
2022/11/03 03:27:41;;;;;;;14.67;9.73;;;;;;;-143.84;66.67;45090.97;5051248;28;20441;-69
2022/11/03 03:30:09;;;;;;;14.43;8.30;;;;;;;-143.84;66.72;45113.81;5050358;28;20528;-70
2022/11/03 03:32:39;;;;;;;16.23;10.23;;;;;;;-143.84;66.61;45108.09;5050176;28;20430;-70
2022/11/03 03:35:10;;;;;;;12.90;9.43;;;;;;;-143.84;66.64;45104.28;5050210;28;20499;-70
2022/11/03 03:37:43;;;;;;;14.77;10.30;;;;;;;-143.84;66.74;45090.97;5049416;28;20441;-70
2022/11/03 03:40:14;;;;;;;19.40;10.30;;;;;;;-143.84;66.72;45104.28;5049790;28;21108;-70
2022/11/03 03:42:45;;;;;;;20.23;9.37;;;;;;;-143.84;66.36;45117.63;5062659;28;20444;-70
2022/11/03 03:45:13;;;;;;;13.90;10.67;;;;;;;-143.84;66.29;45113.81;5070849;28;20866;-69
2022/11/03 03:47:41;;;;;;;18.40;10.87;;;;;;;-143.84;65.67;45087.16;5071287;28;20972;-70
2022/11/03 03:50:08;;;;;;;11.90;9.70;;;;;;;-143.84;65.48;45108.09;5071262;28;20451;-70
2022/11/03 03:52:37;;;;;;;15.67;11.57;;;;;;;-143.84;65.12;45110.00;5071029;28;20472;-70
2022/11/03 03:55:07;;;;;;;23.87;11.80;;;;;;;-143.84;64.93;45102.38;5070222;28;20448;-70
2022/11/03 03:57:34;;;;;;;23.27;12.20;;;;;;;-143.84;64.96;45110.00;5070505;28;20450;-69
2022/11/03 04:00:04;;;;;;;18.87;12.33;;;;;;;-143.84;65.21;45106.19;5070820;28;20988;-69
2022/11/03 04:02:32;;;;;;;17.97;11.57;;;;;;;-143.84;64.95;45121.44;5069262;28;20544;-70
2022/11/03 04:05:00;;;;;;;18.00;11.87;;;;;;;-143.84;65.21;45113.81;5057444;28;21002;-70
2022/11/03 04:10:11;;;;;;;16.47;11.40;;;;;;;-143.84;64.80;45106.19;5050951;28;20430;-70
2022/11/03 04:23:49;;;;;;;19.00;12.27;;;;;;;-143.84;66.67;45096.66;5050380;28;20489;-70
2022/11/03 04:26:22;;;;;;;25.87;12.53;;;;;;;-143.84;66.77;45104.28;5049791;28;20507;-69
2022/11/03 04:28:50;;;;;;;19.70;13.63;;;;;;;-143.84;66.94;45117.63;5049966;28;20460;-70
2022/11/03 04:31:20;;;;;;;20.40;13.23;;;;;;;-143.84;67.27;45127.13;5050350;28;20453;-70
2022/11/03 04:33:50;;;;;;;22.73;14.03;;;;;;;-143.84;67.62;45102.38;5050042;28;20457;-70
2022/11/03 04:36:22;;;;;;;28.67;14.63;;;;;;;-143.84;68.02;45121.44;5049718;28;20460;-70
2022/11/03 04:38:51;;;;;;;25.17;13.90;;;;;;;-143.84;68.55;45174.75;5049489;28;20457;-70
2022/11/03 04:41:21;;;;;;;21.40;13.27;;;;;;;-143.84;68.96;45115.72;5049811;28;20888;-70
2022/11/03 04:43:50;;;;;;;30.70;15.93;;;;;;;-143.84;69.37;45134.75;5049536;28;20500;-69
2022/11/03 04:46:24;;;;;;;25.60;14.70;;;;;;;-143.84;69.83;45130.94;5050081;28;20460;-70
2022/11/03 04:48:53;;;;;;;26.10;14.67;;;;;;;-143.84;70.21;45085.25;5050134;28;21311;-70
2022/11/03 04:51:24;;;;;;;27.17;15.47;;;;;;;-143.84;70.57;45129.03;5050058;28;20441;-70
2022/11/03 04:53:54;;;;;;;27.30;14.70;;;;;;;-143.84;70.67;45106.19;5049457;28;20465;-69
2022/11/03 04:56:24;;;;;;;28.87;16.10;;;;;;;-143.84;70.88;45104.28;5049968;28;20456;-69
2022/11/03 04:58:52;;;;;;;25.47;15.33;;;;;;;-143.84;70.84;45134.75;5049880;28;20469;-70
2022/11/03 05:01:22;;;;;;;17.63;14.23;;;;;;;-143.84;71.08;45136.66;5049889;28;20942;-69
2022/11/03 05:03:52;;;;;;;21.73;14.53;;;;;;;-143.84;71.56;45096.66;5052853;28;20504;-70
2022/11/03 05:06:22;;;;;;;27.10;14.77;;;;;;;-143.84;71.54;45144.28;5069649;28;20441;-70
2022/11/03 05:08:53;;;;;;;25.70;16.43;;;;;;;-143.84;71.52;45113.81;5069788;28;20448;-70
2022/11/03 05:11:26;;;;;;;26.47;16.40;;;;;;;-143.84;71.50;45117.63;5069342;28;20990;-69
2022/11/03 05:13:53;;;;;;;23.40;16.47;;;;;;;-143.84;71.68;45110.00;5069119;28;20991;-69
2022/11/03 05:16:21;;;;;;;27.93;16.57;;;;;;;-143.84;71.91;45104.28;5069333;28;20815;-69
2022/11/03 05:18:50;;;;;;;28.47;16.33;;;;;;;-143.84;71.90;45104.28;5068811;28;20452;-69
2022/11/03 05:21:19;;;;;;;26.13;16.67;;;;;;;-143.84;72.08;45127.13;5069473;28;20451;-69
2022/11/03 05:23:52;;;;;;;33.03;15.73;;;;;;;-143.84;72.52;45129.03;5069192;28;20487;-69
2022/11/03 05:26:23;;;;;;;34.33;18.47;;;;;;;-143.84;72.60;45106.19;5069528;28;20810;-69
2022/11/03 05:28:55;;;;;;;25.50;17.40;;;;;;;-143.84;72.12;45102.38;5069416;28;20447;-69
2022/11/03 05:31:27;;;;;;;33.63;16.37;;;;;;;-143.84;72.01;45106.19;5069440;28;20470;-69
2022/11/03 05:33:58;;;;;;;30.20;17.63;;;;;;;-143.84;72.13;45132.84;5069267;28;20883;-69
2022/11/03 05:36:28;;;;;;;27.90;16.80;;;;;;;-143.84;72.33;45117.63;5066341;28;20516;-69
2022/11/03 05:38:59;;;;;;;26.50;16.77;;;;;;;-143.84;72.49;45096.66;5062407;28;20441;-69
2022/11/03 05:41:29;;;;;;;32.80;16.97;;;;;;;-143.84;72.28;45125.22;5061346;28;20447;-69
2022/11/03 05:43:59;;;;;;;28.90;17.43;;;;;;;-143.84;72.30;45117.63;5062885;28;20491;-70
2022/11/03 05:46:31;;;;;;;30.00;16.43;;;;;;;-143.84;72.37;45119.53;5068898;28;20452;-70
2022/11/03 05:49:02;;;;;;;27.30;17.47;;;;;;;-143.84;72.27;45132.84;5069357;28;20530;-69
2022/11/03 05:51:34;;;;;;;27.33;17.20;;;;;;;-143.84;72.15;45098.56;5068906;28;20505;-69
2022/11/03 05:54:04;;;;;;;24.70;15.97;;;;;;;-143.84;72.36;45104.28;5068958;28;20448;-70
2022/11/03 05:56:33;;;;;;;23.80;15.80;;;;;;;-143.84;72.44;45100.47;5068757;28;20440;-69
2022/11/03 05:59:01;;;;;;;23.27;15.23;;;;;;;-143.84;72.44;45104.28;5068862;28;20448;-70
2022/11/03 06:01:32;;;;;;;32.13;15.33;;;;;;;-143.84;72.26;45098.56;5068809;28;20516;-70
2022/11/03 06:04:01;;;;;;;26.00;15.83;;;;;;;-143.84;71.92;45121.44;5068984;28;20577;-70
2022/11/03 06:06:33;;;;;;;23.57;15.17;;;;;;;-143.84;71.33;45121.44;5068740;28;20942;-70
2022/11/03 06:09:03;;;;;;;26.00;15.43;;;;;;;-143.84;70.85;45132.84;5068911;28;20445;-69
2022/11/03 06:11:35;;;;;;;25.67;15.67;;;;;;;-143.84;70.11;45127.13;5068731;28;20446;-70
2022/11/03 06:14:13;;;;;;;26.03;14.00;;;;;;;-143.84;69.86;45102.38;5068679;28;20863;-69
2022/11/03 06:16:43;;;;;;;24.20;14.00;;;;;;;-143.84;69.52;45081.44;5068630;28;20441;-70
2022/11/03 06:19:20;;;;;;;23.70;14.20;;;;;;;-143.84;68.77;45098.56;5068930;28;20517;-70
2022/11/03 06:21:49;;;;;;;22.87;15.13;;;;;;;-143.84;67.86;45100.47;5068660;28;20441;-70
2022/11/03 06:24:20;;;;;;;21.47;14.33;;;;;;;-143.84;67.83;45106.19;5068538;28;20481;-70
2022/11/03 06:26:48;;;;;;;18.47;14.07;;;;;;;-143.84;67.27;45100.47;5072731;28;20878;-70
2022/11/03 06:29:17;;;;;;;26.43;13.43;;;;;;;-143.84;66.37;45108.09;5072796;28;20443;-70
2022/11/03 06:31:47;;;;;;;22.67;14.63;;;;;;;-143.84;65.82;45087.16;5072429;28;20507;-70
2022/11/03 06:34:37;;;;;;;28.53;16.37;;;;;;;-143.84;65.31;45096.66;5072065;28;20450;-70
2022/11/03 06:37:20;;;;;;;22.83;13.30;;;;;;;-143.84;64.46;45087.16;5072725;28;20525;-69
2022/11/03 06:39:49;;;;;;;34.00;15.57;;;;;;;-143.84;63.78;45083.34;5071610;28;20505;-70
2022/11/03 06:42:19;;;;;;;24.70;13.40;;;;;;;-143.84;63.15;45100.47;5072403;28;20433;-70
2022/11/03 06:44:49;;;;;;;30.83;14.10;;;;;;;-143.84;61.77;45081.44;5072250;28;20572;-70
2022/11/03 06:47:24;;;;;;;25.93;14.90;;;;;;;-143.84;60.69;45089.06;5072272;28;20441;-70
2022/11/03 06:49:53;;;;;;;16.73;11.50;;;;;;;-143.84;60.47;45087.16;5072327;28;20594;-70
2022/11/03 06:52:30;;;;;;;26.93;14.20;;;;;;;-143.84;59.87;45083.34;5072418;28;20444;-70
2022/11/03 06:55:20;;;;;;;18.70;12.00;;;;;;;-143.84;58.16;45085.25;5071351;28;20448;-70
2022/11/03 06:57:51;;;;;;;18.63;13.13;;;;;;;-143.84;57.72;45077.63;5071419;28;20444;-70
2022/11/03 07:00:21;;;;;;;18.30;12.63;;;;;;;-143.84;56.68;45083.34;5071678;28;20514;-70
2022/11/03 07:02:57;;;;;;;21.00;12.67;;;;;;;-143.84;55.32;45090.97;5072103;28;20470;-70
2022/11/03 07:05:25;;;;;;;21.93;10.40;;;;;;;-143.84;54.24;45066.22;5071635;28;20488;-70
2022/11/03 07:07:57;;;;;;;13.23;10.23;;;;;;;-143.84;54.79;45068.13;5071891;28;20432;-70
2022/11/03 07:10:25;;;;;;;11.70;9.77;;;;;;;-143.84;55.55;45070.00;5072054;28;20453;-70
2022/11/03 07:12:53;;;;;;;12.10;9.47;;;;;;;-143.84;54.35;45039.53;5072136;28;20444;-70
2022/11/03 07:15:27;;;;;;;16.27;10.47;;;;;;;-143.84;54.00;45068.13;5072066;28;20452;-70
2022/11/03 07:17:56;;;;;;;14.27;9.20;;;;;;;-143.84;53.38;45054.78;5071715;28;20518;-70
2022/11/03 07:20:25;;;;;;;14.20;9.00;;;;;;;-143.84;52.38;45087.16;5071587;28;21011;-70
2022/11/03 07:22:54;;;;;;;10.50;8.80;;;;;;;-143.84;52.41;45066.22;5071876;28;20448;-70
2022/11/03 07:25:22;;;;;;;11.93;8.73;;;;;;;-143.84;51.27;45060.50;5071624;28;20488;-70
2022/11/03 07:27:51;;;;;;;11.57;7.83;;;;;;;-143.84;50.86;45058.59;5071446;28;20436;-69
2022/11/03 07:30:21;;;;;;;20.00;9.00;;;;;;;-143.84;50.64;45049.06;5070843;28;20440;-70
2022/11/03 07:32:52;;;;;;;11.97;8.03;;;;;;;-143.84;50.13;45075.72;5071186;28;20445;-70
2022/11/03 07:35:32;;;;;;;13.90;8.20;;;;;;;-143.84;49.74;45050.97;5071073;28;20437;-70
2022/11/03 07:38:03;;;;;;;11.73;7.80;;;;;;;-143.84;49.06;45043.34;5071241;28;20459;-70
2022/11/03 07:40:33;;;;;;;18.90;8.07;;;;;;;-143.84;49.91;45083.34;5071527;28;20457;-70
2022/11/03 07:43:08;;;;;;;16.60;7.97;;;;;;;-143.84;49.19;45083.34;5071745;28;20551;-70
2022/11/03 07:45:41;;;;;;;9.23;7.20;;;;;;;-143.84;48.14;45049.06;5071486;28;20475;-70
2022/11/03 07:48:18;;;;;;;10.50;7.70;;;;;;;-143.84;48.57;45054.78;5071315;28;20444;-70
2022/11/03 07:50:47;;;;;;;9.63;7.20;;;;;;;-143.84;48.28;45056.69;5071253;28;20512;-70
2022/11/03 07:53:20;;;;;;;12.73;7.20;;;;;;;-143.84;47.75;45077.63;5071178;28;20437;-70
2022/11/03 07:55:47;;;;;;;10.57;6.90;;;;;;;-143.84;46.03;45037.66;5071159;28;20817;-70
2022/11/03 07:58:22;;;;;;;7.43;6.73;;;;;;;-143.84;46.74;45064.31;5071352;28;20432;-70
2022/11/03 08:00:50;;;;;;;11.53;8.10;;;;;;;-143.84;45.74;45062.41;5071421;28;20523;-70
2022/11/03 08:03:28;;;;;;;8.80;7.40;;;;;;;-143.84;45.47;45033.84;5070591;28;20436;-70
2022/11/03 08:05:57;;;;;;;13.70;7.57;;;;;;;-143.84;43.62;45043.34;5070680;28;20472;-70
2022/11/03 08:08:24;;;;;;;9.53;6.97;;;;;;;-143.84;42.28;45022.41;5070973;28;20475;-70
2022/11/03 08:10:51;;;;;;;15.23;7.07;;;;;;;-143.84;42.49;45047.16;5070829;28;20930;-70
2022/11/03 08:13:18;;;;;;;8.30;6.47;;;;;;;-143.84;42.08;45035.75;5071012;28;20829;-70
2022/11/03 08:15:45;;;;;;;11.10;6.93;;;;;;;-143.84;41.96;45028.13;5070696;28;20518;-70
2022/11/03 08:18:12;;;;;;;15.30;7.43;;;;;;;-143.84;41.17;45037.66;5070786;28;20930;-70
2022/11/03 08:20:40;;;;;;;11.53;6.30;;;;;;;-143.84;41.79;45030.03;5070563;28;20474;-70
2022/11/03 08:23:10;;;;;;;13.83;7.03;;;;;;;-143.84;41.91;45068.13;5063284;28;20852;-70
2022/11/03 08:25:37;;;;;;;7.10;5.80;;;;;;;-143.84;41.90;45039.53;5050318;28;20489;-70
2022/11/03 08:28:05;;;;;;;11.73;7.30;;;;;;;-143.84;42.22;45043.34;5048767;28;20983;-70
2022/11/03 08:30:32;;;;;;;9.23;6.37;;;;;;;-143.84;42.17;45037.66;5050440;28;20456;-70
2022/11/03 08:33:00;;;;;;;12.60;6.60;;;;;;;-143.84;42.25;45049.06;5050383;28;20712;-70
2022/11/03 08:35:27;;;;;;;9.03;6.63;;;;;;;-143.84;41.98;45022.41;5050218;28;20442;-70
2022/11/03 08:37:54;;;;;;;9.20;6.23;;;;;;;-143.84;42.62;45028.13;5050227;28;20442;-70
2022/11/03 08:40:22;;;;;;;12.73;8.63;;;;;;;-143.84;44.13;45045.25;5048839;28;20453;-70
2022/11/03 08:42:50;;;;;;;22.70;12.27;;;;;;;-143.84;45.18;45070.00;5034964;28;20460;-70
2022/11/03 08:45:17;;;;;;;21.13;12.47;;;;;;;-143.84;46.37;45033.84;5057685;28;20513;-70
2022/11/03 08:47:44;;;;;;;24.17;10.40;;;;;;;-143.84;44.98;45052.88;5060489;28;20444;-70
2022/11/03 08:50:11;;;;;;;16.60;11.10;;;;;;;-143.84;44.96;45028.13;5060072;28;20449;-70
2022/11/03 08:52:38;;;;;;;21.73;11.33;;;;;;;-143.84;44.67;45033.84;5056063;28;20452;-70
2022/11/03 08:55:06;;;;;;;24.43;11.50;;;;;;;-143.84;45.35;45071.91;5055176;28;20460;-69
2022/11/03 08:57:35;;;;;;;21.23;11.00;;;;;;;-143.84;43.97;45037.66;5053743;28;20445;-70
2022/11/03 09:00:02;;;;;;;20.90;11.50;;;;;;;-143.84;44.49;45030.03;5053449;28;20515;-70
2022/11/03 09:02:29;;;;;;;15.20;10.53;;;;;;;-143.84;44.61;45030.03;5057336;28;20468;-70
2022/11/03 09:04:57;;;;;;;18.63;11.57;;;;;;;-143.84;44.48;45045.25;5057542;28;20489;-70
2022/11/03 09:07:24;;;;;;;17.87;10.40;;;;;;;-143.84;45.48;45045.25;5056159;28;20570;-70
2022/11/03 09:09:51;;;;;;;12.70;10.10;;;;;;;-143.84;45.81;45028.13;5060239;28;20837;-70
2022/11/03 09:12:18;;;;;;;19.83;10.50;;;;;;;-143.84;45.77;45049.06;5057586;28;20445;-70
2022/11/03 09:14:47;;;;;;;18.03;8.07;;;;;;;-143.84;44.38;45037.66;5056760;28;20436;-69
2022/11/03 09:17:14;;;;;;;12.43;8.90;;;;;;;-143.84;42.55;45039.53;5059374;28;20461;-69
2022/11/03 09:19:41;;;;;;;18.60;8.90;;;;;;;-143.84;42.03;45028.13;5052871;28;21042;-69
2022/11/03 09:22:08;;;;;;;15.40;9.53;;;;;;;-143.84;43.50;45030.03;5057739;28;20502;-70
2022/11/03 09:24:35;;;;;;;20.53;10.43;;;;;;;-143.84;42.62;45047.16;5054243;28;20441;-70
2022/11/03 09:27:03;;;;;;;15.43;9.73;;;;;;;-143.84;41.71;45012.88;5056760;28;20893;-70
2022/11/03 09:29:30;;;;;;;17.97;9.97;;;;;;;-143.84;42.53;45016.69;5052698;28;20461;-70
2022/11/03 09:31:59;;;;;;;14.77;12.00;;;;;;;-143.84;42.52;45030.03;5052637;28;20453;-70
2022/11/03 09:34:26;;;;;;;15.00;11.57;;;;;;;-143.84;43.30;45026.22;5056485;28;20452;-70
2022/11/03 09:36:53;;;;;;;19.03;8.60;;;;;;;-143.84;43.42;45050.97;5058521;28;20461;-70
2022/11/03 09:39:20;;;;;;;13.20;10.77;;;;;;;-143.84;43.97;45028.13;5058453;28;20950;-70
2022/11/03 09:41:48;;;;;;;25.87;9.70;;;;;;;-143.84;43.73;45026.22;5054791;28;20440;-70
2022/11/03 09:44:16;;;;;;;12.47;10.40;;;;;;;-143.84;43.62;45026.22;5056298;28;20839;-70
2022/11/03 09:46:43;;;;;;;17.00;11.23;;;;;;;-143.84;44.64;45018.59;5051542;28;20516;-70
2022/11/03 09:49:14;;;;;;;19.30;11.23;;;;;;;-143.84;44.96;45041.44;5061102;28;20826;-70
2022/11/03 09:51:42;;;;;;;15.07;10.27;;;;;;;-143.84;45.41;45052.88;5059936;28;20461;-70
2022/11/03 09:54:14;;;;;;;14.60;11.80;;;;;;;-143.84;44.47;45052.88;5058339;28;20839;-68
2022/11/03 09:56:43;;;;;;;16.07;11.40;;;;;;;-143.84;44.32;45014.78;5061418;28;20532;-68
2022/11/03 09:59:16;;;;;;;16.77;10.80;;;;;;;-143.84;44.37;45028.13;5050184;28;20453;-68
2022/11/03 10:01:44;;;;;;;13.13;10.00;;;;;;;-143.84;44.27;45035.75;5054102;28;20445;-71
2022/11/03 10:04:13;;;;;;;19.13;11.00;;;;;;;-143.84;44.27;45005.28;5060886;28;20492;-71
2022/11/03 10:06:40;;;;;;;15.80;12.43;;;;;;;-143.84;44.07;45066.22;5060890;28;20561;-71
2022/11/03 10:09:14;;;;;;;13.00;11.00;;;;;;;-143.84;44.55;45031.94;5052663;28;20459;-71
2022/11/03 10:11:42;;;;;;;20.80;10.27;;;;;;;-143.84;45.09;45028.13;5058418;28;20448;-71
2022/11/03 10:14:13;;;;;;;12.37;10.20;;;;;;;-143.84;45.66;45035.75;5066592;28;20546;-71
2022/11/03 10:16:42;;;;;;;11.97;10.37;;;;;;;-143.84;46.67;45045.25;5068801;28;20453;-71
2022/11/03 10:19:12;;;;;;;14.60;10.37;;;;;;;-143.84;45.54;45045.25;5068729;28;20452;-71
2022/11/03 10:21:42;;;;;;;14.40;9.70;;;;;;;-143.84;45.81;45012.88;5068892;28;21163;-72
2022/11/03 10:24:12;;;;;;;10.80;9.80;;;;;;;-143.84;46.22;45050.97;5069026;28;20437;-72
2022/11/03 10:26:47;;;;;;;13.70;9.70;;;;;;;-143.84;45.00;45030.03;5068596;28;21376;-72
2022/11/03 10:29:22;;;;;;;15.77;10.73;;;;;;;-143.84;45.55;45050.97;5067241;28;20485;-72
2022/11/03 10:31:51;;;;;;;10.30;8.80;;;;;;;-143.84;46.37;45031.94;5048838;28;20425;-72
2022/11/03 10:34:27;;;;;;;13.53;9.73;;;;;;;-143.84;46.43;45020.50;5048736;28;20438;-72
2022/11/03 10:37:16;;;;;;;16.80;11.03;;;;;;;-143.84;45.81;45010.97;5048650;28;20433;-71
2022/11/03 10:39:44;;;;;;;11.47;9.50;;;;;;;-143.84;46.06;45045.25;5048523;28;20504;-71
2022/11/03 10:42:19;;;;;;;11.43;9.47;;;;;;;-143.84;45.69;45043.34;5048566;28;20941;-71
2022/11/03 10:44:47;;;;;;;20.80;10.30;;;;;;;-143.84;46.85;45037.66;5068187;28;20523;-71
2022/11/03 10:47:32;;;;;;;20.33;12.33;;;;;;;-143.84;47.80;45071.91;5068442;28;20997;-71
2022/11/03 10:50:00;;;;;;;24.10;10.20;;;;;;;-143.84;47.66;45043.34;5068393;28;20440;-71
2022/11/03 10:52:30;;;;;;;12.20;9.53;;;;;;;-143.84;47.62;45060.50;5068020;28;20437;-71
2022/11/03 10:54:59;;;;;;;19.63;9.50;;;;;;;-143.84;48.10;45052.88;5068044;28;21111;-71
2022/11/03 10:57:28;;;;;;;29.63;12.30;;;;;;;-143.84;48.57;45039.53;5068504;28;20437;-72
2022/11/03 10:59:55;;;;;;;19.57;10.23;;;;;;;-143.84;47.43;45087.16;5067977;28;20535;-72
2022/11/03 11:02:25;;;;;;;14.80;9.73;;;;;;;-143.84;47.94;45026.22;5067794;28;20516;-71
2022/11/03 11:04:58;;;;;;;17.13;10.47;;;;;;;-143.84;47.69;45037.66;5067503;28;20488;-71
2022/11/03 11:07:32;;;;;;;110.53;16.27;;;;;;;-143.84;48.46;45041.44;5067779;28;20453;-72
2022/11/03 11:10:06;;;;;;;15.63;9.60;;;;;;;-143.84;49.08;45026.22;5067838;28;20861;-72
2022/11/03 11:12:34;;;;;;;18.43;9.53;;;;;;;-143.84;48.37;45062.41;5072031;28;20436;-72
2022/11/03 11:15:06;;;;;;;9.67;8.40;;;;;;;-143.84;48.97;45081.44;5071404;28;20946;-72
2022/11/03 11:17:48;;;;;;;13.80;9.50;;;;;;;-143.84;48.63;45054.78;5071156;28;20514;-72
2022/11/03 11:20:34;;;;;;;21.03;9.90;;;;;;;-143.84;51.14;45052.88;5071488;28;20445;-71
2022/11/03 11:23:47;;;;;;;14.20;9.60;;;;;;;-143.84;50.10;45050.97;5071510;28;20832;-71
2022/11/03 11:26:39;;;;;;;17.90;9.70;;;;;;;-143.84;50.64;45047.16;5071400;28;20914;-71
2022/11/03 11:29:45;;;;;;;11.90;9.30;;;;;;;-143.84;51.76;45075.72;5071534;28;20452;-71
2022/11/03 11:32:50;;;;;;;15.60;8.90;;;;;;;-143.84;51.14;45047.16;5070366;28;20444;-71
2022/11/03 11:36:07;;;;;;;11.10;8.77;;;;;;;-143.84;50.72;45052.88;5041936;28;20440;-71
2022/11/03 11:38:57;;;;;;;14.00;8.60;;;;;;;-143.84;50.50;45050.97;5071265;28;20957;-71
2022/11/03 11:42:02;;;;;;;13.30;8.97;;;;;;;-143.84;49.48;45052.88;5071559;28;20441;-71
2022/11/03 11:44:56;;;;;;;14.20;8.83;;;;;;;-143.84;50.99;45068.13;5071068;28;20445;-71
2022/11/03 11:47:33;;;;;;;14.53;10.07;;;;;;;-143.84;51.89;45062.41;5071513;28;20485;-72